Time;durP1;ratioP1;P1;durP2;ratioP2;P2;SDS_P1;SDS_P2;PMS_P1;PMS_P2;Temp;Humidity;BMP_temperature;BMP_pressure;BME280_temperature;BME280_humidity;BME280_pressure;Samples;Min_cycle;Max_cycle;Signal;HPM_P1;HPM_P2
2020/12/14 00:00:28;;;;;;;16.37;10.47;;;;;;;1.11;79.09;100226.25;126387;1093;104499;-78
2020/12/14 00:03:00;;;;;;;19.17;11.27;;;;;;;1.09;79.38;100225.39;126640;1093;104552;-77
2020/12/14 00:05:27;;;;;;;18.87;11.27;;;;;;;1.08;79.72;100230.52;126542;1098;104382;-78
2020/12/14 00:07:54;;;;;;;15.57;9.93;;;;;;;1.07;79.57;100224.49;126675;1093;106078;-78
2020/12/14 00:10:22;;;;;;;17.30;10.40;;;;;;;1.07;79.45;100232.20;126621;1093;104475;-78
2020/12/14 00:12:50;;;;;;;18.40;11.00;;;;;;;1.11;80.02;100220.26;126659;1093;104498;-78
2020/12/14 00:15:17;;;;;;;17.60;10.93;;;;;;;1.17;80.23;100221.14;126604;1093;104542;-80
2020/12/14 00:17:47;;;;;;;20.43;11.77;;;;;;;1.21;79.90;100222.87;126474;1093;104374;-78
2020/12/14 00:20:14;;;;;;;18.85;11.15;;;;;;;1.27;80.12;100222.06;126489;1098;104570;-78
2020/12/14 00:22:41;;;;;;;18.20;10.80;;;;;;;1.33;79.50;100227.22;126579;1093;104462;-78
2020/12/14 00:25:08;;;;;;;15.37;9.07;;;;;;;1.36;79.57;100229.80;126669;1098;104378;-79
2020/12/14 00:27:38;;;;;;;15.77;9.60;;;;;;;1.38;79.50;100227.23;126474;1093;104494;-78
2020/12/14 00:30:05;;;;;;;13.23;7.70;;;;;;;1.37;79.13;100223.80;126721;1093;104366;-78
2020/12/14 00:32:33;;;;;;;11.07;6.83;;;;;;;1.37;79.19;100228.09;126476;1093;104878;-80
2020/12/14 00:35:00;;;;;;;14.43;8.50;;;;;;;1.37;79.11;100222.95;126684;1093;104468;-78
2020/12/14 00:37:27;;;;;;;14.30;8.20;;;;;;;1.34;78.79;100226.37;126565;1098;104586;-78
2020/12/14 00:39:59;;;;;;;13.10;7.90;;;;;;;1.31;78.80;100234.06;126592;1093;104199;-77
2020/12/14 00:42:26;;;;;;;13.77;8.07;;;;;;;1.28;79.08;100239.20;126313;1099;105675;-78
2020/12/14 00:44:55;;;;;;;14.10;8.83;;;;;;;1.27;79.25;100244.33;126427;1099;104387;-78
2020/12/14 00:47:28;;;;;;;11.60;7.37;;;;;;;1.27;79.08;100246.90;126391;1093;104480;-78
2020/12/14 00:49:55;;;;;;;11.70;7.73;;;;;;;1.26;78.88;100246.04;126486;1093;104509;-78
2020/12/14 00:52:25;;;;;;;12.63;8.00;;;;;;;1.26;79.07;100242.58;126356;1093;104506;-78
2020/12/14 00:54:52;;;;;;;12.70;8.13;;;;;;;1.27;78.80;100244.33;126697;1093;104503;-78
2020/12/14 00:57:20;;;;;;;12.13;7.73;;;;;;;1.25;78.67;100238.30;126370;1099;104410;-78
2020/12/14 00:59:52;;;;;;;13.80;8.70;;;;;;;1.23;79.02;100240.86;126450;1093;104512;-78
2020/12/14 01:02:22;;;;;;;13.57;8.67;;;;;;;1.22;78.85;100244.28;126411;1093;103296;-78
2020/12/14 01:04:51;;;;;;;14.00;8.80;;;;;;;1.21;79.14;100243.42;126423;1100;104529;-78
2020/12/14 01:07:18;;;;;;;15.67;9.50;;;;;;;1.19;79.18;100245.13;126599;1098;104535;-78
2020/12/14 01:09:45;;;;;;;14.40;9.17;;;;;;;1.15;78.94;100240.83;126614;1093;104389;-77
2020/12/14 01:12:13;;;;;;;15.60;9.13;;;;;;;1.09;78.91;100238.23;126687;1098;104499;-78
2020/12/14 01:14:41;;;;;;;13.67;8.30;;;;;;;1.06;79.11;100243.33;126353;1097;104385;-79
2020/12/14 01:17:09;;;;;;;12.40;7.50;;;;;;;1.05;79.00;100243.31;126698;1098;104506;-79
2020/12/14 01:19:37;;;;;;;12.57;8.27;;;;;;;1.07;79.16;100250.17;126655;1093;104383;-79
2020/12/14 01:22:04;;;;;;;14.53;8.27;;;;;;;1.08;79.30;100257.06;126472;1093;104510;-78
2020/12/14 01:24:31;;;;;;;13.07;8.23;;;;;;;1.09;79.25;100250.22;126643;1093;104398;-78
2020/12/14 01:26:59;;;;;;;13.13;7.63;;;;;;;1.08;79.03;100254.50;126677;1093;104811;-78
2020/12/14 01:29:30;;;;;;;12.20;8.20;;;;;;;1.07;78.83;100251.89;126543;1093;103715;-79
2020/12/14 01:31:57;;;;;;;12.30;8.07;;;;;;;1.07;79.03;100257.88;126626;1100;104878;-78
2020/12/14 01:34:24;;;;;;;13.60;8.50;;;;;;;1.06;79.02;100251.03;126475;1093;104424;-79
2020/12/14 01:36:54;;;;;;;13.93;8.50;;;;;;;1.04;78.92;100250.16;126644;1098;104474;-78
2020/12/14 01:39:21;;;;;;;13.77;9.13;;;;;;;1.02;79.08;100251.01;126528;1094;104519;-78
2020/12/14 01:41:51;;;;;;;15.50;9.37;;;;;;;1.02;79.04;100251.87;126669;1093;102417;-78
2020/12/14 01:44:19;;;;;;;14.57;8.50;;;;;;;1.04;79.17;100259.58;126567;1098;104381;-79
2020/12/14 01:46:46;;;;;;;14.87;8.50;;;;;;;1.04;78.94;100254.44;126723;1098;104452;-78
2020/12/14 01:49:14;;;;;;;15.40;9.30;;;;;;;1.02;78.96;100259.57;126556;1093;104421;-79
2020/12/14 01:51:42;;;;;;;13.70;8.77;;;;;;;1.02;79.22;100264.70;126650;1093;103213;-78
2020/12/14 01:54:22;;;;;;;13.70;8.07;;;;;;;1.04;79.22;100270.71;126350;1093;104536;-79
2020/12/14 01:56:50;;;;;;;13.75;8.15;;;;;;;1.02;78.92;100261.28;126424;1096;104369;-78
2020/12/14 01:59:17;;;;;;;14.70;9.10;;;;;;;1.01;78.89;100264.70;126598;1098;104532;-76
2020/12/14 02:01:45;;;;;;;14.73;8.87;;;;;;;1.02;79.07;100264.70;126485;1100;104950;-76
2020/12/14 02:04:12;;;;;;;13.13;8.03;;;;;;;1.02;79.10;100261.28;126680;1093;106147;-77
2020/12/14 02:06:39;;;;;;;12.93;8.30;;;;;;;0.99;78.93;100256.98;126579;1093;104426;-77
2020/12/14 02:09:07;;;;;;;14.30;8.50;;;;;;;1.03;79.10;100258.72;126477;1098;104382;-78
2020/12/14 02:11:34;;;;;;;11.53;7.33;;;;;;;1.04;79.05;100257.87;126578;1098;104401;-78
2020/12/14 02:14:02;;;;;;;12.68;8.08;;;;;;;1.02;78.98;100251.87;126725;1093;104666;-77
2020/12/14 02:16:30;;;;;;;13.37;8.27;;;;;;;1.00;79.01;100252.71;126651;1093;104503;-77
2020/12/14 02:18:57;;;;;;;14.20;8.30;;;;;;;0.96;78.94;100254.41;126690;1093;104519;-77
2020/12/14 02:21:24;;;;;;;11.93;7.67;;;;;;;0.94;79.03;100257.81;126597;1093;104429;-77
2020/12/14 02:23:51;;;;;;;14.17;8.27;;;;;;;0.92;79.00;100257.81;126711;1093;104423;-77
2020/12/14 02:26:18;;;;;;;15.00;8.53;;;;;;;0.94;78.83;100257.81;126388;1100;104490;-78
2020/12/14 02:28:46;;;;;;;13.97;8.30;;;;;;;0.91;79.08;100261.23;126699;1099;102890;-77
2020/12/14 02:31:13;;;;;;;13.68;9.03;;;;;;;0.90;79.06;100259.52;126694;1093;104471;-77
2020/12/14 02:33:40;;;;;;;14.77;8.90;;;;;;;0.89;79.01;100260.33;126622;1093;104455;-77
2020/12/14 02:36:07;;;;;;;13.93;8.43;;;;;;;0.86;78.88;100255.17;126347;1098;102056;-77
2020/12/14 02:38:35;;;;;;;14.58;9.00;;;;;;;0.85;79.22;100258.59;126700;1098;104370;-78
2020/12/14 02:41:02;;;;;;;14.70;9.00;;;;;;;0.88;79.27;100263.74;126571;1093;104446;-78
2020/12/14 02:43:29;;;;;;;12.97;8.47;;;;;;;0.88;79.29;100259.47;126613;1093;104589;-77
2020/12/14 02:45:57;;;;;;;15.40;9.10;;;;;;;0.90;79.25;100262.08;126449;1093;104403;-77
2020/12/14 02:48:24;;;;;;;14.90;9.03;;;;;;;0.91;79.39;100268.93;126627;1098;104430;-78
2020/12/14 02:50:51;;;;;;;15.73;9.83;;;;;;;0.93;79.35;100267.23;126673;1098;104433;-78
2020/12/14 02:53:18;;;;;;;15.58;9.03;;;;;;;0.95;79.34;100273.23;126615;1093;104538;-78
2020/12/14 02:55:45;;;;;;;15.83;9.37;;;;;;;0.98;78.92;100275.81;126659;1093;104426;-77
2020/12/14 02:58:12;;;;;;;15.43;9.57;;;;;;;0.95;79.37;100286.07;126626;1093;103544;-77
2020/12/14 03:00:40;;;;;;;15.50;8.85;;;;;;;0.97;79.45;100278.38;126645;1098;104387;-77
2020/12/14 03:03:07;;;;;;;17.13;9.70;;;;;;;1.03;79.69;100279.27;126583;1093;104560;-77
2020/12/14 03:05:34;;;;;;;14.27;9.13;;;;;;;1.08;79.28;100277.61;126748;1093;104468;-77
2020/12/14 03:08:02;;;;;;;16.60;9.63;;;;;;;1.09;79.22;100281.90;126632;1093;104363;-77
2020/12/14 03:10:30;;;;;;;17.00;10.50;;;;;;;1.11;79.05;100280.20;126435;1094;104391;-78
2020/12/14 03:12:57;;;;;;;17.33;10.07;;;;;;;1.13;79.19;100281.06;126542;1099;105577;-77
2020/12/14 03:15:25;;;;;;;15.70;9.55;;;;;;;1.14;79.30;100271.64;126679;1093;104665;-78
2020/12/14 03:17:52;;;;;;;18.47;10.27;;;;;;;1.16;79.07;100277.65;126376;1093;104500;-78
2020/12/14 03:20:20;;;;;;;17.25;10.15;;;;;;;1.15;79.39;100284.50;126440;1100;104500;-77
2020/12/14 03:22:47;;;;;;;17.13;10.50;;;;;;;1.16;79.09;100282.79;126375;1093;104481;-78
2020/12/14 03:25:14;;;;;;;17.77;10.83;;;;;;;1.15;79.08;100283.64;126389;1096;104623;-77
2020/12/14 03:27:41;;;;;;;19.50;10.67;;;;;;;1.12;79.06;100283.63;126603;1099;105693;-77
2020/12/14 03:30:10;;;;;;;18.95;10.93;;;;;;;1.06;79.02;100281.84;126787;1093;104453;-77
2020/12/14 03:32:37;;;;;;;18.00;10.83;;;;;;;1.03;79.06;100289.54;126696;1098;104471;-78
2020/12/14 03:35:04;;;;;;;17.35;10.75;;;;;;;1.05;79.59;100292.98;126652;1093;104410;-78
2020/12/14 03:37:31;;;;;;;18.57;11.23;;;;;;;1.03;79.32;100286.11;126670;1099;106658;-78
2020/12/14 03:39:58;;;;;;;17.77;10.83;;;;;;;1.01;79.10;100291.24;126681;1099;104503;-77
2020/12/14 03:42:29;;;;;;;19.05;10.75;;;;;;;1.02;79.28;100297.23;126759;1098;104372;-77
2020/12/14 03:44:57;;;;;;;17.37;9.63;;;;;;;1.01;79.33;100293.81;126755;1100;104526;-76
2020/12/14 03:47:31;;;;;;;21.23;11.37;;;;;;;1.05;79.45;100294.69;126788;1098;104529;-78
2020/12/14 03:49:58;;;;;;;17.63;10.87;;;;;;;1.07;79.39;100291.27;126720;1093;104502;-77
2020/12/14 03:52:25;;;;;;;19.33;11.03;;;;;;;1.08;79.17;100295.59;126705;1098;104478;-77
2020/12/14 03:54:53;;;;;;;16.87;10.50;;;;;;;1.07;79.38;100291.27;126733;1093;104370;-77
2020/12/14 03:57:20;;;;;;;17.77;10.70;;;;;;;1.06;79.33;100292.13;126738;1093;105174;-77
2020/12/14 03:59:48;;;;;;;16.65;9.95;;;;;;;1.07;79.03;100293.84;126691;1093;104436;-77
2020/12/14 04:02:15;;;;;;;18.70;10.23;;;;;;;1.11;79.35;100297.31;126646;1093;104538;-78
2020/12/14 04:04:43;;;;;;;17.33;10.10;;;;;;;1.13;79.62;100296.48;126438;1093;104452;-77
2020/12/14 04:07:10;;;;;;;16.90;9.70;;;;;;;1.16;79.59;100300.77;126720;1093;104442;-77
2020/12/14 04:09:37;;;;;;;17.27;9.73;;;;;;;1.18;79.37;100293.92;126527;1098;104542;-77
2020/12/14 04:12:04;;;;;;;19.50;10.73;;;;;;;1.18;79.24;100294.78;126464;1099;104515;-76
2020/12/14 04:14:32;;;;;;;19.77;11.13;;;;;;;1.21;79.30;100296.52;126656;1093;104309;-77
2020/12/14 04:16:59;;;;;;;17.77;11.40;;;;;;;1.19;79.38;100291.37;126847;1093;104487;-78
2020/12/14 04:19:26;;;;;;;16.63;10.43;;;;;;;1.19;79.01;100291.37;126712;1093;104506;-77
2020/12/14 04:21:53;;;;;;;18.23;10.47;;;;;;;1.18;79.11;100297.36;126706;1093;104490;-77
2020/12/14 04:24:21;;;;;;;16.70;10.50;;;;;;;1.16;79.00;100296.48;126680;1093;105470;-77
2020/12/14 04:26:52;;;;;;;18.77;11.30;;;;;;;1.16;79.49;100303.34;126731;1093;104493;-77
2020/12/14 04:29:21;;;;;;;21.43;11.47;;;;;;;1.16;79.12;100304.20;126743;1098;104369;-78
2020/12/14 04:31:50;;;;;;;18.80;10.70;;;;;;;1.15;79.11;100306.75;126465;1093;104394;-77
2020/12/14 04:34:19;;;;;;;19.27;10.73;;;;;;;1.14;79.20;100308.47;126645;1093;104473;-78
2020/12/14 04:36:47;;;;;;;17.00;10.07;;;;;;;1.13;79.24;100304.18;126662;1099;104458;-77
2020/12/14 04:39:15;;;;;;;18.97;11.23;;;;;;;1.15;79.28;100307.61;126707;1093;104516;-78
2020/12/14 04:41:43;;;;;;;19.00;10.83;;;;;;;1.17;79.31;100312.77;126587;1098;105298;-78
2020/12/14 04:44:12;;;;;;;19.27;11.30;;;;;;;1.17;79.03;100313.62;126484;1093;103369;-78
2020/12/14 04:46:42;;;;;;;18.83;10.90;;;;;;;1.17;79.25;100316.19;126554;1100;104566;-77
2020/12/14 04:49:09;;;;;;;17.50;10.63;;;;;;;1.17;79.15;100323.89;126424;1093;104452;-77
2020/12/14 04:51:38;;;;;;;18.73;11.33;;;;;;;1.19;79.28;100326.47;126707;1098;104583;-77
2020/12/14 04:54:06;;;;;;;17.47;10.53;;;;;;;1.20;79.27;100323.91;126508;1093;104462;-78
2020/12/14 04:56:39;;;;;;;19.53;11.67;;;;;;;1.23;79.42;100317.07;126662;1093;103642;-78
2020/12/14 04:59:10;;;;;;;18.37;11.47;;;;;;;1.24;79.09;100318.79;126645;1098;104606;-77
2020/12/14 05:01:37;;;;;;;19.20;11.45;;;;;;;1.24;79.19;100319.65;126595;1093;104400;-77
2020/12/14 05:04:04;;;;;;;18.30;11.67;;;;;;;1.27;79.47;100326.55;126609;1093;104360;-77
2020/12/14 05:06:51;;;;;;;20.70;11.50;;;;;;;1.27;79.16;100326.55;126685;1098;104378;-78
2020/12/14 05:09:20;;;;;;;18.67;11.70;;;;;;;1.31;79.11;100330.84;126510;1099;104436;-78
2020/12/14 05:11:48;;;;;;;17.97;11.10;;;;;;;1.35;79.17;100333.44;126519;1099;103011;-78
2020/12/14 05:14:19;;;;;;;20.03;11.43;;;;;;;1.37;79.15;100341.16;126512;1100;104510;-78
2020/12/14 05:16:47;;;;;;;21.70;12.30;;;;;;;1.39;79.20;100360.01;126634;1098;104509;-77
2020/12/14 05:19:28;;;;;;;20.00;11.33;;;;;;;1.42;79.22;100353.17;126676;1098;104449;-77
2020/12/14 05:21:58;;;;;;;21.07;12.53;;;;;;;1.44;78.83;100353.22;126669;1093;104378;-78
2020/12/14 05:24:28;;;;;;;19.70;11.43;;;;;;;1.46;79.12;100354.08;126709;1093;104406;-77
2020/12/14 05:26:57;;;;;;;19.03;11.40;;;;;;;1.51;79.15;100365.24;126517;1093;104533;-77
2020/12/14 05:29:27;;;;;;;18.70;11.20;;;;;;;1.59;79.33;100367.84;126514;1096;104208;-78
2020/12/14 05:32:19;;;;;;;20.73;12.27;;;;;;;1.62;79.02;100363.61;126702;1093;104443;-78
2020/12/14 05:34:47;;;;;;;20.60;12.03;;;;;;;1.68;79.22;100373.92;126655;1098;104446;-77
2020/12/14 05:37:15;;;;;;;18.97;11.63;;;;;;;1.72;78.81;100373.08;126714;1093;103265;-78
2020/12/14 05:39:44;;;;;;;20.73;11.23;;;;;;;1.76;78.63;100377.38;126693;1093;104389;-77
2020/12/14 05:42:20;;;;;;;17.63;10.47;;;;;;;1.79;78.85;100381.67;126451;1097;104304;-77
2020/12/14 05:44:49;;;;;;;17.67;10.30;;;;;;;1.84;78.33;100384.30;126649;1098;104435;-77
2020/12/14 05:47:27;;;;;;;14.77;9.57;;;;;;;1.86;78.55;100392.87;126723;1093;106022;-77
2020/12/14 05:49:57;;;;;;;16.43;10.20;;;;;;;1.85;78.31;100398.88;126628;1093;103168;-77
2020/12/14 05:52:31;;;;;;;20.63;11.17;;;;;;;1.86;78.49;100401.45;126382;1093;104542;-78
2020/12/14 05:54:59;;;;;;;18.93;11.03;;;;;;;1.90;78.60;100402.32;126548;1098;104401;-78
2020/12/14 05:57:35;;;;;;;16.53;10.37;;;;;;;1.91;77.72;100404.03;126501;1100;104407;-77
2020/12/14 06:00:06;;;;;;;19.10;10.90;;;;;;;1.84;77.69;100400.58;126665;1093;104571;-77
2020/12/14 06:02:35;;;;;;;12.60;7.67;;;;;;;1.79;77.49;100397.10;126672;1093;104526;-77
2020/12/14 06:05:05;;;;;;;12.30;8.00;;;;;;;1.80;77.80;100388.56;126415;1093;104580;-77
2020/12/14 06:07:34;;;;;;;14.13;8.43;;;;;;;1.85;78.07;100401.45;126672;1098;104369;-77
2020/12/14 06:10:09;;;;;;;11.43;7.80;;;;;;;1.89;77.56;100405.75;126606;1098;104397;-77
2020/12/14 06:12:42;;;;;;;15.43;9.57;;;;;;;1.90;77.86;100404.89;126648;1093;104487;-79
2020/12/14 06:15:12;;;;;;;17.87;10.87;;;;;;;1.91;78.02;100414.33;126686;1098;103136;-78
2020/12/14 06:17:40;;;;;;;42.77;25.20;;;;;;;1.91;77.96;100411.75;126679;1098;104573;-77
2020/12/14 06:20:22;;;;;;;24.75;14.60;;;;;;;1.94;77.53;100414.34;126739;1093;104407;-78
2020/12/14 06:22:58;;;;;;;18.73;11.60;;;;;;;1.93;77.34;100412.63;126679;1093;104894;-78
2020/12/14 06:25:26;;;;;;;20.50;11.57;;;;;;;1.93;77.50;100423.77;126431;1093;102910;-78
2020/12/14 06:27:53;;;;;;;19.60;11.63;;;;;;;1.93;77.52;100426.34;126640;1093;104390;-78
2020/12/14 06:30:34;;;;;;;20.37;10.95;;;;;;;1.90;77.63;100426.33;126375;1099;104577;-78
2020/12/14 06:33:11;;;;;;;19.80;11.97;;;;;;;1.84;77.52;100421.16;126475;1099;104414;-77
2020/12/14 06:35:56;;;;;;;19.67;11.40;;;;;;;1.80;77.91;100428.00;126470;1099;103580;-78
2020/12/14 06:38:40;;;;;;;21.13;12.80;;;;;;;1.81;77.59;100427.14;126702;1093;104417;-78
2020/12/14 06:41:14;;;;;;;18.93;11.77;;;;;;;1.84;77.98;100421.16;126418;1100;104984;-77
2020/12/14 06:43:45;;;;;;;24.13;14.97;;;;;;;1.90;78.05;100431.47;126642;1099;104490;-77
2020/12/14 06:46:26;;;;;;;20.83;12.73;;;;;;;1.91;77.72;100427.19;126432;1096;104410;-78
2020/12/14 06:48:54;;;;;;;20.67;12.27;;;;;;;1.88;77.64;100427.17;126685;1093;104510;-79
2020/12/14 06:51:21;;;;;;;19.70;12.25;;;;;;;1.94;78.08;100427.20;126475;1093;104401;-78
2020/12/14 06:53:54;;;;;;;19.63;11.53;;;;;;;1.99;77.99;100430.68;126521;1093;104378;-78
2020/12/14 06:56:27;;;;;;;19.33;11.60;;;;;;;2.02;77.37;100416.11;126423;1093;104532;-77
2020/12/14 06:58:55;;;;;;;16.40;9.90;;;;;;;2.05;77.70;100422.98;126700;1093;104474;-78
2020/12/14 07:01:40;;;;;;;14.17;9.27;;;;;;;2.04;77.16;100428.98;126696;1098;105469;-78
2020/12/14 07:04:17;;;;;;;12.53;7.60;;;;;;;2.05;77.28;100434.13;126616;1093;104393;-78
2020/12/14 07:06:44;;;;;;;12.00;7.78;;;;;;;2.10;76.99;100444.44;126634;1098;104491;-77
2020/12/14 07:09:39;;;;;;;16.20;7.60;;;;;;;2.11;76.92;100438.44;126385;1093;105006;-77
2020/12/14 07:12:10;;;;;;;12.37;7.93;;;;;;;2.07;76.53;100447.00;126597;1093;103680;-77
2020/12/14 07:14:51;;;;;;;14.97;8.63;;;;;;;2.08;76.76;100448.72;126671;1098;104853;-77
2020/12/14 07:17:26;;;;;;;16.07;8.90;;;;;;;2.09;76.38;100447.87;126511;1093;104539;-77
2020/12/14 07:20:00;;;;;;;12.43;8.70;;;;;;;2.08;76.90;100453.87;126463;1093;104587;-78
2020/12/14 07:22:34;;;;;;;12.97;8.43;;;;;;;2.03;76.45;100446.13;126397;1093;104532;-78
2020/12/14 07:25:05;;;;;;;12.87;8.80;;;;;;;1.98;76.46;100436.67;126766;1098;104228;-78
2020/12/14 07:27:33;;;;;;;12.23;7.97;;;;;;;1.94;76.10;100438.34;126415;1093;104391;-78
2020/12/14 07:30:06;;;;;;;10.45;7.40;;;;;;;1.92;76.20;100428.91;126438;1093;107000;-77
2020/12/14 07:32:33;;;;;;;11.53;8.43;;;;;;;1.92;76.77;100436.63;126401;1094;105893;-77
2020/12/14 07:35:02;;;;;;;15.63;8.70;;;;;;;1.89;76.09;100428.89;126622;1098;104545;-78
2020/12/14 07:37:29;;;;;;;13.67;8.57;;;;;;;1.87;76.24;100438.31;126330;1093;104372;-77
2020/12/14 07:39:56;;;;;;;13.13;8.30;;;;;;;1.84;76.55;100435.73;126588;1099;104420;-77
2020/12/14 07:42:31;;;;;;;13.53;9.17;;;;;;;1.77;75.88;100425.38;126569;1093;104468;-77
2020/12/14 07:45:19;;;;;;;16.40;9.97;;;;;;;1.66;75.85;100431.33;126644;1093;104468;-77
2020/12/14 07:47:49;;;;;;;15.37;9.70;;;;;;;1.53;76.17;100435.51;126522;1098;104651;-77
2020/12/14 07:50:19;;;;;;;17.57;11.00;;;;;;;1.45;76.62;100438.03;126496;1093;104205;-77
2020/12/14 07:52:49;;;;;;;15.17;9.53;;;;;;;1.41;76.76;100440.55;126612;1093;104416;-78
2020/12/14 07:55:17;;;;;;;17.00;11.10;;;;;;;1.38;76.82;100448.23;126541;1094;104843;-77
2020/12/14 07:57:47;;;;;;;18.47;11.47;;;;;;;1.33;77.01;100448.20;126692;1098;104388;-78
2020/12/14 08:00:23;;;;;;;19.13;10.50;;;;;;;1.31;77.09;100451.61;126428;1093;104481;-76
2020/12/14 08:03:00;;;;;;;17.37;11.60;;;;;;;1.32;77.01;100453.34;126459;1093;104443;-77
2020/12/14 08:05:27;;;;;;;17.95;11.08;;;;;;;1.32;77.33;100446.48;126462;1093;104523;-77
2020/12/14 08:08:05;;;;;;;18.23;11.63;;;;;;;1.33;77.50;100453.34;126550;1093;104462;-77
2020/12/14 08:10:34;;;;;;;22.37;13.43;;;;;;;1.37;77.43;100451.66;126681;1093;105219;-77
2020/12/14 08:13:09;;;;;;;18.93;12.60;;;;;;;1.36;77.45;100445.66;126514;1093;104561;-77
2020/12/14 08:15:38;;;;;;;19.33;11.67;;;;;;;1.38;77.21;100451.66;126714;1093;104439;-77
2020/12/14 08:18:07;;;;;;;17.10;11.23;;;;;;;1.41;77.10;100461.10;126369;1093;104430;-78
2020/12/14 08:20:39;;;;;;;16.40;10.80;;;;;;;1.43;77.20;100459.41;126636;1093;101933;-78
2020/12/14 08:23:21;;;;;;;21.03;12.40;;;;;;;1.45;77.26;100458.59;126651;1098;104549;-78
2020/12/14 08:25:51;;;;;;;17.80;11.67;;;;;;;1.45;77.19;100457.73;126420;1093;104337;-77
2020/12/14 08:28:33;;;;;;;15.80;10.17;;;;;;;1.44;77.30;100463.73;126697;1093;104430;-77
2020/12/14 08:31:04;;;;;;;16.47;10.67;;;;;;;1.46;77.44;100462.03;126702;1093;104386;-77
2020/12/14 08:33:33;;;;;;;17.53;11.00;;;;;;;1.49;77.21;100467.19;126718;1093;102377;-78
2020/12/14 08:36:09;;;;;;;20.00;11.63;;;;;;;1.48;77.32;100468.04;126715;1093;104490;-77
2020/12/14 08:38:36;;;;;;;16.80;10.20;;;;;;;1.46;77.24;100475.73;126704;1093;104362;-77
2020/12/14 08:41:05;;;;;;;17.43;11.47;;;;;;;1.45;77.43;100468.88;126332;1093;104472;-77
2020/12/14 08:43:35;;;;;;;19.47;10.17;;;;;;;1.44;77.40;100481.72;126436;1093;104417;-77
2020/12/14 08:46:11;;;;;;;20.50;12.17;;;;;;;1.43;77.26;100483.39;126379;1093;104833;-77
2020/12/14 08:48:57;;;;;;;20.48;12.65;;;;;;;1.43;77.35;100477.39;126531;1093;104455;-77
2020/12/14 08:51:28;;;;;;;21.33;13.13;;;;;;;1.40;77.59;100477.37;126616;1098;104487;-77
2020/12/14 08:54:09;;;;;;;20.20;12.90;;;;;;;1.39;77.47;100480.80;126789;1093;104170;-77
2020/12/14 08:56:36;;;;;;;19.90;12.83;;;;;;;1.36;77.61;100483.34;126615;1093;106152;-78
2020/12/14 08:59:04;;;;;;;24.73;13.97;;;;;;;1.33;77.49;100478.18;126742;1099;104547;-76
2020/12/14 09:01:32;;;;;;;25.23;13.60;;;;;;;1.33;77.24;100479.04;126603;1093;104500;-77
2020/12/14 09:04:05;;;;;;;17.60;10.80;;;;;;;1.33;77.57;100478.18;126592;1098;104399;-76
2020/12/14 09:06:38;;;;;;;14.87;9.90;;;;;;;1.32;77.30;100482.45;126671;1093;104171;-78
2020/12/14 09:09:14;;;;;;;14.13;9.20;;;;;;;1.31;77.07;100480.73;126651;1093;104369;-77
2020/12/14 09:11:41;;;;;;;19.77;12.07;;;;;;;1.28;77.18;100478.14;126302;1096;104550;-77
2020/12/14 09:14:09;;;;;;;22.15;13.98;;;;;;;1.26;77.49;100476.38;126645;1093;104473;-77
2020/12/14 09:16:37;;;;;;;18.83;12.33;;;;;;;1.25;77.42;100477.23;126630;1093;104570;-77
2020/12/14 09:19:04;;;;;;;18.77;12.57;;;;;;;1.24;77.45;100475.52;126692;1093;104410;-77
2020/12/14 09:21:32;;;;;;;17.53;12.03;;;;;;;1.22;77.58;100467.80;126602;1093;104464;-78
2020/12/14 09:24:14;;;;;;;19.92;12.03;;;;;;;1.20;77.68;100467.78;126478;1098;104435;-78
2020/12/14 09:26:42;;;;;;;20.43;12.47;;;;;;;1.20;77.84;100466.92;126555;1093;104436;-77
2020/12/14 09:29:10;;;;;;;23.77;13.43;;;;;;;1.21;78.05;100466.94;126606;1098;104519;-77
2020/12/14 09:31:38;;;;;;;26.60;14.10;;;;;;;1.25;78.09;100469.52;126577;1093;103242;-77
2020/12/14 09:34:06;;;;;;;25.77;14.87;;;;;;;1.26;77.95;100460.97;126469;1093;104562;-78
2020/12/14 09:36:33;;;;;;;22.67;13.37;;;;;;;1.25;78.19;100459.25;126618;1092;102673;-78
2020/12/14 09:39:01;;;;;;;24.47;14.50;;;;;;;1.25;77.88;100459.25;126640;1093;104484;-77
2020/12/14 09:41:32;;;;;;;24.33;13.73;;;;;;;1.25;78.04;100464.39;126485;1093;104417;-77
2020/12/14 09:44:00;;;;;;;23.40;13.90;;;;;;;1.24;77.79;100452.39;126714;1093;104372;-77
2020/12/14 09:46:28;;;;;;;21.90;12.83;;;;;;;1.23;78.04;100454.09;126672;1092;104369;-76
2020/12/14 09:48:56;;;;;;;19.40;12.10;;;;;;;1.20;77.90;100452.37;126596;1098;102799;-76
2020/12/14 09:51:28;;;;;;;21.90;13.20;;;;;;;1.23;77.89;100458.38;126543;1098;104496;-77
2020/12/14 09:53:56;;;;;;;22.03;12.90;;;;;;;1.29;78.06;100456.74;126385;1093;104520;-77
2020/12/14 09:56:26;;;;;;;19.27;12.97;;;;;;;1.33;78.29;100457.63;126719;1099;104468;-76
2020/12/14 09:58:53;;;;;;;23.97;14.70;;;;;;;1.31;78.05;100449.91;126300;1093;104381;-77
2020/12/14 10:01:24;;;;;;;24.97;14.90;;;;;;;1.30;77.86;100452.47;126674;1093;104458;-76
2020/12/14 10:03:51;;;;;;;24.07;14.83;;;;;;;1.31;77.94;100454.18;126582;1093;105050;-77
2020/12/14 10:06:19;;;;;;;24.40;14.80;;;;;;;1.31;78.21;100449.05;126622;1098;104413;-78
2020/12/14 10:08:46;;;;;;;22.27;14.67;;;;;;;1.32;78.00;100451.63;126375;1093;104448;-77
2020/12/14 10:11:13;;;;;;;27.60;15.37;;;;;;;1.32;78.19;100450.77;126467;1099;104392;-77
2020/12/14 10:13:40;;;;;;;27.13;14.97;;;;;;;1.33;78.15;100442.20;126329;1093;104355;-76
2020/12/14 10:16:08;;;;;;;22.23;13.17;;;;;;;1.36;77.79;100437.09;126632;1098;104445;-77
2020/12/14 10:18:35;;;;;;;21.47;12.80;;;;;;;1.39;78.03;100439.67;126482;1093;104462;-77
2020/12/14 10:21:03;;;;;;;22.80;13.90;;;;;;;1.41;77.95;100450.83;126474;1093;105001;-76
2020/12/14 10:23:31;;;;;;;25.50;15.03;;;;;;;1.43;78.04;100454.27;126652;1093;104391;-78
2020/12/14 10:25:58;;;;;;;27.37;14.77;;;;;;;1.45;77.85;100447.45;126731;1093;104494;-77
2020/12/14 10:28:25;;;;;;;32.70;15.00;;;;;;;1.47;77.68;100456.03;126552;1093;104544;-77
2020/12/14 10:30:54;;;;;;;22.52;13.70;;;;;;;1.45;77.68;100447.45;126420;1096;104504;-78
2020/12/14 10:33:22;;;;;;;22.17;14.20;;;;;;;1.42;77.83;100452.55;126590;1093;104392;-78
2020/12/14 10:35:50;;;;;;;25.80;15.70;;;;;;;1.42;78.38;100457.69;126633;1093;104369;-77
2020/12/14 10:38:17;;;;;;;24.03;13.70;;;;;;;1.45;78.06;100458.59;126660;1093;105332;-78
2020/12/14 10:40:44;;;;;;;22.27;12.23;;;;;;;1.50;78.29;100453.48;126600;1093;104472;-78
2020/12/14 10:43:12;;;;;;;20.93;12.47;;;;;;;1.50;78.07;100451.77;126476;1093;104915;-78
2020/12/14 10:45:39;;;;;;;21.73;13.53;;;;;;;1.48;77.96;100455.19;126603;1093;104474;-78
2020/12/14 10:48:06;;;;;;;25.13;14.10;;;;;;;1.45;77.89;100453.45;126696;1098;104365;-78
2020/12/14 10:50:34;;;;;;;22.33;13.37;;;;;;;1.45;78.03;100452.59;126342;1100;104491;-78
2020/12/14 10:53:01;;;;;;;22.20;13.00;;;;;;;1.46;77.71;100449.17;126481;1099;104471;-78
2020/12/14 10:55:28;;;;;;;23.17;15.20;;;;;;;1.44;78.07;100445.73;126343;1096;104494;-78
2020/12/14 10:57:55;;;;;;;26.82;14.95;;;;;;;1.46;78.36;100449.17;126695;1098;104407;-78
2020/12/14 11:00:23;;;;;;;26.17;14.93;;;;;;;1.47;78.25;100440.61;126362;1096;104439;-79
2020/12/14 11:02:50;;;;;;;20.80;12.70;;;;;;;1.49;77.83;100444.91;126606;1093;104474;-78
2020/12/14 11:05:18;;;;;;;23.83;15.27;;;;;;;1.50;78.08;100456.05;126295;1096;104438;-79
2020/12/14 11:07:45;;;;;;;25.62;15.08;;;;;;;1.51;78.36;100453.49;126659;1098;104456;-78
2020/12/14 11:10:12;;;;;;;26.83;15.37;;;;;;;1.50;77.80;100453.48;126456;1093;104368;-79
2020/12/14 11:12:39;;;;;;;21.93;14.17;;;;;;;1.48;78.17;100462.89;126657;1098;105613;-79
2020/12/14 11:15:07;;;;;;;22.20;13.20;;;;;;;1.46;77.88;100451.75;126357;1093;104430;-77